DIRECCIÓN GENERAL DE AERONÁUTICA CIVIL
DIRECCIÓN METEOROLÓGICA DE CHILE
INFORMACIÓN METAR Y TAF

FIR PUERTO MONTT

Estación: SCQP
METAR SCQP 241200Z 00000KT CAVOK 09/09 Q1020=

TAF SCQP 241031Z 2412/2512 VRB02KT 0700 FG VV/// TX23/2419Z TN07/ 2512Z TEMPO 2412/2415 9999 FEW010 BECMG 2415/2417 20005KT CAVOK BECMG 2500/ 2502 VRB02KT 2000 BR SKC TEMPO 2507/2512 0700 FG VV///=

Estación: SCVD
METAR SCVD 241200Z 00000KT CAVOK 09/09 Q1021=

TAF SCVD 241030Z 2412/2424 VRB02KT CAVOK TN04/2412Z TX20/2419Z BECMG 2415/2417 18005KT BECMG 2422/2424 VRB02=

Estación: SCJO
METAR SCJO 241200Z 00000KT 9999 SCT015 07/07 Q1021=

TAF SCJO 241030Z 2412/2424 VRB02KT CAVOK TN04/2412Z TX20/2419Z TEMPO 2412/2314 0500 FG BKN010 BECMG 2417/2419 17006KT=

Estación: SCTE
METAR SCTE 241200Z 21004KT 9999 OVC010 08/06 Q1022 NOSIG=

TAF SCTE 241034Z 2412/2512 16007KT 9999 SCT012 TX17/2419Z TN05/2506Z TEMPO 2412/2414 VRB02KT BECMG 2417/2419 CAVOK BECMG 2502/2504 VRB02KT 0700 FG VV/// TEMPO 2506/2512 2000 BR BKN010=

Estación: SCPQ
METAR SCPQ 241200Z 18010KT CAVOK 10/06 Q1021=

TAF SCPQ 241040Z 2412/2424 20010KT CAVOK TN09/2412Z TX18/2419Z BECMG 2417/2419 16007KT FEW035=

Estación: SCON
METAR SCON 241200Z 25004KT CAVOK 11/07 Q1022=

TAF SCON 241040Z 2412/2424 20008KT CAVOK TN08/2412Z TX16/2419Z=

Estación: SCTN
NIL=

NIL=

Estación: SCFT
METAR SCFT 241200Z VRB02KT 9999 SKC 08/05 Q1022=

NIL=

Estación: SCAP
METAR SCAP 241200Z AUTO VRB01KT //// // NSC 07/05 Q1027=

NIL=

Estación: SCMK
METAR SCMK 241200Z 18008KT CAVOK 10/07 Q1021=

TAF SCMK 241040Z 2412/2424 18010KT CAVOK TN08/2412Z TX14/2419Z TEMPO 2412/2415 21010KT FEW007 BECMG 2416/2418 21010KT=

Estación: SCAS
METAR SCAS 241200Z 00000KT 9999 FEW016 07/06 Q1022=

NIL=

Estación: SCCY
METAR SCCY 241200Z 02003KT CAVOK 09/04 Q1022=

TAF SCCY 241040Z 2412/2424 VRB02KT CAVOK TN03/2412Z TX17/2419Z BECMG 2422/2424 30006KT=

Estación: SCBA
METAR SCBA 241200Z AUTO 29010KT CAVOK 07/01 Q1019=

TAF SCBA 241038Z 2412/2512 26005KT CAVOK TX18/2420Z TN03/2512Z BECMG 2500/2502 30010KT BECMG 2506/2508 SCT050=

Estación: SCCC
METAR SCCC 241200Z 03004KT CAVOK 11/01 Q1017=

NIL=

Estación: SCHR
METAR SCHR 241200Z 27014KT CAVOK 07/02 Q1018=

TAF SCHR 241050Z 2412/2500 28010KT CAVOK TN06/2412Z TX17/2419Z TEMPO 2415/2419 VRB03KT=


Volver